createdAt,value
2018-12-21T00:01:52.405Z,2.80
2018-12-21T00:04:26.586Z,3.47
2018-12-21T00:06:59.927Z,3.30
2018-12-21T00:09:31.370Z,3.47
2018-12-21T00:12:03.036Z,3.17
2018-12-21T00:14:36.519Z,3.67
2018-12-21T00:17:16.544Z,3.07
2018-12-21T00:19:50.260Z,3.03
2018-12-21T00:22:30.125Z,3.10
2018-12-21T00:25:10.086Z,2.90
2018-12-21T00:27:45.441Z,3.33
2018-12-21T00:30:25.972Z,3.10
2018-12-21T00:33:06.145Z,2.80
2018-12-21T00:35:45.853Z,2.60
2018-12-21T00:38:23.386Z,2.73
2018-12-21T00:43:59.840Z,2.80
2018-12-21T00:46:38.082Z,2.50
2018-12-21T00:49:11.530Z,3.47
2018-12-21T00:51:51.649Z,2.90
2018-12-21T00:54:31.908Z,3.03
2018-12-21T00:57:11.648Z,2.70
2018-12-21T00:59:43.785Z,2.80
2018-12-21T01:02:23.639Z,2.77
2018-12-21T01:13:35.800Z,3.37
2018-12-21T01:16:18.088Z,3.13
2018-12-21T01:18:58.652Z,2.80
2018-12-21T01:21:39.201Z,3.13
2018-12-21T01:24:19.701Z,2.93
2018-12-21T01:26:51.098Z,2.83
2018-12-21T01:29:22.992Z,2.80
2018-12-21T01:32:05.708Z,3.30
2018-12-21T01:34:45.423Z,2.50
2018-12-21T01:37:25.297Z,2.80
2018-12-21T01:39:56.302Z,2.80
2018-12-21T01:42:29.715Z,2.67
2018-12-21T01:45:10.000Z,2.30
2018-12-21T01:47:50.236Z,2.67
2018-12-21T01:50:30.382Z,2.53
2018-12-21T01:53:10.178Z,2.80
2018-12-21T01:55:49.833Z,2.80
2018-12-21T01:58:21.013Z,2.70
2018-12-21T02:01:00.677Z,2.47
2018-12-21T02:03:40.486Z,2.50
2018-12-21T02:06:11.620Z,2.83
2018-12-21T02:08:42.764Z,2.60
2018-12-21T02:11:22.664Z,2.40
2018-12-21T02:14:04.371Z,2.47
2018-12-21T02:19:22.810Z,2.70
2018-12-21T02:24:57.000Z,2.33
2018-12-21T02:27:37.279Z,2.43
2018-12-21T02:30:08.403Z,1.97
2018-12-21T02:32:48.361Z,2.47
2018-12-21T02:35:28.416Z,2.43
2018-12-21T02:37:59.563Z,2.50
2018-12-21T02:40:39.754Z,2.70
2018-12-21T02:43:19.574Z,2.73
2018-12-21T02:45:53.255Z,2.30
2018-12-21T02:48:27.137Z,2.17
2018-12-21T02:51:07.874Z,2.20
2018-12-21T02:53:47.896Z,2.37
2018-12-21T03:02:10.516Z,2.53
2018-12-21T03:04:41.630Z,2.40
2018-12-21T03:07:12.782Z,2.60
2018-12-21T03:09:44.796Z,2.57
2018-12-21T03:18:00.877Z,2.53
2018-12-21T03:20:40.671Z,2.47
2018-12-21T03:23:20.562Z,2.57
2018-12-21T03:25:52.227Z,2.47
2018-12-21T03:28:25.919Z,2.23
2018-12-21T03:31:05.961Z,2.37
2018-12-21T03:33:46.042Z,2.50
2018-12-21T03:36:19.964Z,2.47
2018-12-21T03:39:00.115Z,3.03
2018-12-21T03:41:40.145Z,2.10
2018-12-21T03:44:26.037Z,2.30
2018-12-21T03:47:06.116Z,2.30
2018-12-21T03:49:37.420Z,2.43
2018-12-21T03:52:24.195Z,2.20
2018-12-21T03:55:02.013Z,2.17
2018-12-21T03:57:42.042Z,2.30
2018-12-21T04:00:13.568Z,2.63
2018-12-21T04:05:40.796Z,2.40
2018-12-21T04:08:20.684Z,2.30
2018-12-21T04:11:00.529Z,2.40
2018-12-21T04:13:31.590Z,1.90
2018-12-21T04:16:11.446Z,2.10
2018-12-21T04:21:44.826Z,2.00
2018-12-21T04:24:18.491Z,2.20
2018-12-21T04:26:52.484Z,2.23
2018-12-21T04:29:26.675Z,2.03
2018-12-21T04:32:06.830Z,1.80
2018-12-21T04:34:46.625Z,2.40
2018-12-21T04:37:26.502Z,2.40
2018-12-21T04:40:01.427Z,2.07
2018-12-21T04:42:41.688Z,1.80
2018-12-21T04:45:22.276Z,2.17
2018-12-21T04:48:01.954Z,2.00
2018-12-21T04:50:41.553Z,2.20
2018-12-21T04:53:21.866Z,1.80
2018-12-21T04:56:02.329Z,2.10
2018-12-21T04:58:34.204Z,2.20
2018-12-21T05:03:57.983Z,2.23
2018-12-21T05:06:29.874Z,1.97
2018-12-21T05:09:00.812Z,2.10
2018-12-21T05:11:41.354Z,2.10
2018-12-21T05:14:21.120Z,2.20
2018-12-21T05:16:54.871Z,2.00
2018-12-21T05:19:26.381Z,2.40
2018-12-21T05:22:07.099Z,2.20
2018-12-21T05:24:47.188Z,2.30
2018-12-21T05:27:18.285Z,2.30
2018-12-21T05:29:51.653Z,2.30
2018-12-21T05:32:31.910Z,2.17
2018-12-21T05:35:12.597Z,2.67
2018-12-21T05:37:52.672Z,2.30
2018-12-21T05:40:33.302Z,2.40
2018-12-21T05:43:12.899Z,2.30
2018-12-21T05:45:46.375Z,2.50
2018-12-21T05:48:17.767Z,3.43
2018-12-21T05:51:03.497Z,2.97
2018-12-21T05:58:58.230Z,2.30
2018-12-21T06:01:38.446Z,1.83
2018-12-21T06:04:18.852Z,2.10
2018-12-21T06:09:38.167Z,2.30
2018-12-21T06:12:18.091Z,2.23
2018-12-21T06:14:57.971Z,2.13
2018-12-21T06:17:29.242Z,2.07
2018-12-21T06:20:00.395Z,2.37
2018-12-21T06:25:27.414Z,1.70
2018-12-21T06:28:12.470Z,2.00
2018-12-21T06:33:45.785Z,1.63
2018-12-21T06:36:25.630Z,1.83
2018-12-21T06:38:57.922Z,1.70
2018-12-21T06:41:37.766Z,1.70
2018-12-21T06:44:17.765Z,2.10
2018-12-21T06:46:51.583Z,1.73
2018-12-21T06:49:26.432Z,1.80
2018-12-21T06:52:07.095Z,1.60
2018-12-21T06:57:42.760Z,1.80
2018-12-21T07:03:20.366Z,1.30
2018-12-21T07:08:48.310Z,1.67
2018-12-21T07:11:28.024Z,1.47
2018-12-21T07:19:51.335Z,1.60
2018-12-21T07:25:19.816Z,1.57
2018-12-21T07:28:02.122Z,2.03
2018-12-21T07:33:31.371Z,1.87
2018-12-21T07:36:16.857Z,1.67
2018-12-21T07:53:39.727Z,1.60
2018-12-21T08:22:37.354Z,1.20
2018-12-21T08:34:10.569Z,1.30
2018-12-21T08:39:34.297Z,1.20
